Time;durP1;ratioP1;P1;durP2;ratioP2;P2;SDS_P1;SDS_P2;PMS_P1;PMS_P2;Temp;Humidity;BMP_temperature;BMP_pressure;BME280_temperature;BME280_humidity;BME280_pressure;Samples;Min_cycle;Max_cycle;Signal;HPM_P1;HPM_P2
2022/02/20 00:00:05;;;;;;;;;;;5.10;98.40;5.60;100438.00;;;;346150;28;82455;-95
2022/02/20 00:00:17;;;;;;;;;;;5.10;98.40;5.70;100435.00;;;;341388;28;96215;-94
2022/02/20 00:00:29;;;;;;;;;;;5.10;98.40;5.70;100443.00;;;;343203;28;83571;-94
2022/02/20 00:00:41;;;;;;;;;;;5.10;98.30;5.70;100433.00;;;;342052;28;95472;-94
2022/02/20 00:00:53;;;;;;;;;;;5.10;98.30;5.80;100441.00;;;;343411;28;83491;-95
2022/02/20 00:01:05;;;;;;;;;;;5.10;98.30;5.60;100433.00;;;;343061;28;96844;-94
2022/02/20 00:01:17;;;;;;;;;;;5.10;98.50;5.50;100431.00;;;;346362;28;82495;-94
2022/02/20 00:01:28;;;;;;;;;;;5.10;98.70;5.50;100429.00;;;;344045;28;96453;-95
2022/02/20 00:01:40;;;;;;;;;;;5.10;98.90;5.50;100436.00;;;;344765;28;83358;-94
2022/02/20 00:01:53;;;;;;;;;;;5.10;98.90;5.60;100431.00;;;;343961;28;97827;-94
2022/02/20 00:02:05;;;;;;;;;;;5.10;98.90;5.50;100436.00;;;;344672;28;82526;-94
2022/02/20 00:02:17;;;;;;;;;;;5.10;98.90;5.60;100432.00;;;;343888;28;94195;-94
2022/02/20 00:02:29;;;;;;;;;;;5.10;98.90;5.60;100426.00;;;;343482;28;82560;-94
2022/02/20 00:02:41;;;;;;;;;;;5.10;98.90;5.60;100430.00;;;;342704;28;96541;-94
2022/02/20 00:02:53;;;;;;;;;;;5.10;98.90;5.60;100432.00;;;;342092;28;82485;-94
2022/02/20 00:03:05;;;;;;;;;;;5.10;99.10;5.50;100437.00;;;;341295;28;93736;-94
2022/02/20 00:03:17;;;;;;;;;;;5.10;99.10;5.40;100432.00;;;;342172;28;82493;-94
2022/02/20 00:03:29;;;;;;;;;;;5.10;99.30;5.30;100441.00;;;;343997;28;95548;-94
2022/02/20 00:03:41;;;;;;;;;;;5.10;99.40;5.40;100440.00;;;;346076;28;82579;-94
2022/02/20 00:03:53;;;;;;;;;;;5.00;99.40;5.40;100433.00;;;;342635;28;96330;-94
2022/02/20 00:04:05;;;;;;;;;;;5.00;99.40;5.40;100433.00;;;;345507;28;83551;-94
2022/02/20 00:04:17;;;;;;;;;;;5.10;99.40;5.40;100438.00;;;;342745;28;95151;-94
2022/02/20 00:04:29;;;;;;;;;;;5.10;99.40;5.40;100434.00;;;;346171;28;83413;-94
2022/02/20 00:04:42;;;;;;;;;;;5.10;99.30;5.30;100435.00;;;;343922;28;96023;-95
2022/02/20 00:04:54;;;;;;;;;;;5.00;99.30;5.20;100440.00;;;;344820;28;82456;-92
2022/02/20 00:05:07;;;;;;;;;;;5.00;99.50;5.20;100435.00;;;;343830;28;96963;-94
2022/02/20 00:05:19;;;;;;;;;;;5.00;99.60;5.20;100440.00;;;;345993;28;82419;-94
2022/02/20 00:05:30;;;;;;;;;;;5.00;99.70;5.20;100440.00;;;;344065;28;94783;-94
2022/02/20 00:05:42;;;;;;;;;;;5.00;99.70;5.20;100445.00;;;;344818;28;83405;-94
2022/02/20 00:05:54;;;;;;;;;;;5.00;99.70;5.20;100435.00;;;;343935;28;98011;-95
2022/02/20 00:06:08;;;;;;;;;;;4.90;99.60;5.30;100444.00;;;;344878;28;82512;-96
2022/02/20 00:06:19;;;;;;;;;;;4.90;99.70;5.30;100444.00;;;;342642;28;96736;-94
2022/02/20 00:06:31;;;;;;;;;;;4.90;99.60;5.30;100443.00;;;;346037;28;82429;-95
2022/02/20 00:06:43;;;;;;;;;;;4.90;99.60;5.20;100442.00;;;;342504;28;95545;-95
2022/02/20 00:06:56;;;;;;;;;;;4.90;99.60;5.10;100447.00;;;;344833;28;83192;-95
2022/02/20 00:07:08;;;;;;;;;;;4.90;99.70;5.20;100436.00;;;;345237;28;96724;-95
2022/02/20 00:07:19;;;;;;;;;;;4.90;99.70;5.30;100441.00;;;;344771;28;82313;-95
2022/02/20 00:07:31;;;;;;;;;;;4.90;99.50;5.40;100440.00;;;;343773;28;96685;-96
2022/02/20 00:07:43;;;;;;;;;;;4.90;99.40;5.40;100444.00;;;;343276;28;83423;-94
2022/02/20 00:07:55;;;;;;;;;;;4.90;99.20;5.40;100442.00;;;;343917;28;98131;-94
2022/02/20 00:08:07;;;;;;;;;;;4.90;99.10;5.30;100445.00;;;;343482;28;83173;-94
2022/02/20 00:08:19;;;;;;;;;;;4.90;99.10;5.30;100444.00;;;;341318;28;96583;-95
2022/02/20 00:08:31;;;;;;;;;;;4.90;99.20;5.30;100441.00;;;;343293;28;82583;-95
2022/02/20 00:08:43;;;;;;;;;;;4.90;99.30;5.30;100436.00;;;;345934;28;95006;-95
2022/02/20 00:08:55;;;;;;;;;;;4.90;99.20;5.30;100441.00;;;;346203;28;83394;-94
2022/02/20 00:09:06;;;;;;;;;;;4.90;99.20;5.40;100423.00;;;;342550;28;95603;-95
2022/02/20 00:09:18;;;;;;;;;;;4.90;99.00;5.40;100437.00;;;;343266;28;83499;-95
2022/02/20 00:09:30;;;;;;;;;;;4.90;98.90;5.40;100436.00;;;;342389;28;95683;-94
2022/02/20 00:09:43;;;;;;;;;;;4.90;98.80;5.40;100429.00;;;;345207;28;83427;-95
2022/02/20 00:09:55;;;;;;;;;;;4.90;98.70;5.40;100434.00;;;;343970;28;97667;-95
2022/02/20 00:10:07;;;;;;;;;;;4.90;98.70;5.40;100434.00;;;;343426;28;83421;-95
2022/02/20 00:10:19;;;;;;;;;;;4.90;98.60;5.40;100417.00;;;;344034;28;95809;-95
2022/02/20 00:10:30;;;;;;;;;;;4.90;98.50;5.40;100428.00;;;;344806;28;83939;-95
2022/02/20 00:10:42;;;;;;;;;;;4.90;98.50;5.40;100431.00;;;;345497;28;95521;-96
2022/02/20 00:10:54;;;;;;;;;;;4.90;98.60;5.40;100439.00;;;;344810;28;82282;-94
2022/02/20 00:11:06;;;;;;;;;;;4.90;98.80;5.40;100424.00;;;;341287;28;95720;-95
2022/02/20 00:11:18;;;;;;;;;;;4.90;99.00;5.40;100434.00;;;;344011;28;82412;-94
2022/02/20 00:11:29;;;;;;;;;;;4.90;99.10;5.50;100426.00;;;;344100;28;96652;-95
2022/02/20 00:11:41;;;;;;;;;;;4.90;99.00;5.50;100423.00;;;;347540;27;82565;-95
2022/02/20 00:11:53;;;;;;;;;;;4.90;98.90;5.40;100422.00;;;;345215;28;96022;-95
2022/02/20 00:12:05;;;;;;;;;;;4.90;99.10;5.50;100422.00;;;;346218;28;83372;-95
2022/02/20 00:12:17;;;;;;;;;;;4.90;99.20;5.40;100429.00;;;;345409;28;95481;-94
2022/02/20 00:12:29;;;;;;;;;;;4.90;99.20;5.30;100429.00;;;;343051;28;82532;-96
2022/02/20 00:12:41;;;;;;;;;;;4.90;99.40;5.30;100432.00;;;;342011;28;95946;-94
2022/02/20 00:12:53;;;;;;;;;;;4.90;99.50;5.30;100427.00;;;;344766;28;82620;-94
2022/02/20 00:13:05;;;;;;;;;;;4.90;99.60;5.30;100418.00;;;;342619;28;95166;-95
2022/02/20 00:13:17;;;;;;;;;;;4.90;99.60;5.30;100424.00;;;;344932;28;83576;-95
2022/02/20 00:13:29;;;;;;;;;;;4.90;99.70;5.30;100429.00;;;;344148;28;95483;-95
2022/02/20 00:13:41;;;;;;;;;;;4.90;99.60;5.30;100426.00;;;;346322;28;83499;-94
2022/02/20 00:13:53;;;;;;;;;;;4.90;99.50;5.30;100428.00;;;;346095;28;95549;-95
2022/02/20 00:14:05;;;;;;;;;;;4.90;99.50;5.20;100421.00;;;;345958;28;83448;-95
2022/02/20 00:14:17;;;;;;;;;;;4.90;99.60;5.20;100424.00;;;;345273;28;95795;-96
2022/02/20 00:14:28;;;;;;;;;;;4.90;99.60;5.10;100421.00;;;;344892;28;82476;-94
2022/02/20 00:14:40;;;;;;;;;;;4.90;99.60;5.20;100436.00;;;;346897;28;94777;-95
2022/02/20 00:14:52;;;;;;;;;;;4.90;99.70;5.10;100427.00;;;;344863;28;83314;-94
2022/02/20 00:15:05;;;;;;;;;;;4.90;99.70;5.10;100433.00;;;;344043;28;94612;-95
2022/02/20 00:15:17;;;;;;;;;;;4.90;99.70;5.30;100429.00;;;;344849;28;83261;-94
2022/02/20 00:15:29;;;;;;;;;;;4.90;99.70;5.40;100433.00;;;;343822;28;95580;-95
2022/02/20 00:15:41;;;;;;;;;;;4.90;99.60;5.50;100430.00;;;;347277;28;82506;-95
2022/02/20 00:15:53;;;;;;;;;;;4.90;99.70;5.60;100412.00;;;;342555;28;100308;-94
2022/02/20 00:16:05;;;;;;;;;;;4.90;99.60;5.60;100425.00;;;;343657;28;83413;-95
2022/02/20 00:16:17;;;;;;;;;;;4.90;99.40;5.50;100437.00;;;;342867;28;96248;-94
2022/02/20 00:16:28;;;;;;;;;;;4.90;99.40;5.40;100423.00;;;;343860;28;82405;-95
2022/02/20 00:16:52;;;;;;;;;;;4.90;99.40;5.40;100435.00;;;;342703;28;95207;-95
2022/02/20 00:17:04;;;;;;;;;;;4.90;99.80;5.40;100430.00;;;;344795;28;82558;-94
2022/02/20 00:17:16;;;;;;;;;;;4.90;99.60;5.40;100426.00;;;;345451;28;95795;-95
2022/02/20 00:17:27;;;;;;;;;;;4.90;99.40;5.40;100426.00;;;;346144;28;83224;-95
2022/02/20 00:17:39;;;;;;;;;;;4.90;99.10;5.40;100422.00;;;;344035;28;94840;-95
2022/02/20 00:17:53;;;;;;;;;;;4.90;99.20;5.40;100422.00;;;;344959;28;83347;-95
2022/02/20 00:18:05;;;;;;;;;;;4.90;99.10;5.50;100422.00;;;;345532;28;97374;-95
2022/02/20 00:18:17;;;;;;;;;;;4.90;99.40;5.50;100418.00;;;;342367;28;82426;-95
2022/02/20 00:18:29;;;;;;;;;;;4.90;99.00;5.50;100431.00;;;;342794;28;95586;-95
2022/02/20 00:18:41;;;;;;;;;;;4.90;99.10;5.50;100418.00;;;;344279;28;83303;-95
2022/02/20 00:18:53;;;;;;;;;;;4.90;99.20;5.60;100413.00;;;;343017;28;95994;-94
2022/02/20 00:19:05;;;;;;;;;;;4.90;99.60;5.50;100424.00;;;;345742;28;82627;-95
2022/02/20 00:19:17;;;;;;;;;;;4.90;99.40;5.50;100417.00;;;;342679;28;96808;-94
2022/02/20 00:19:29;;;;;;;;;;;4.90;99.60;5.50;100417.00;;;;343526;28;82475;-95
2022/02/20 00:19:42;;;;;;;;;;;4.90;99.50;5.50;100411.00;;;;342659;28;96609;-94
2022/02/20 00:19:54;;;;;;;;;;;4.90;99.80;5.40;100415.00;;;;344852;28;83489;-94
2022/02/20 00:20:06;;;;;;;;;;;4.90;99.80;5.40;100418.00;;;;342632;28;97529;-94
2022/02/20 00:20:18;;;;;;;;;;;4.90;99.70;5.50;100409.00;;;;343424;28;83153;-95
2022/02/20 00:20:30;;;;;;;;;;;4.90;99.50;5.40;100418.00;;;;341300;28;95157;-95
2022/02/20 00:20:44;;;;;;;;;;;4.90;99.50;5.40;100418.00;;;;343434;28;83484;-96
2022/02/20 00:20:56;;;;;;;;;;;4.80;99.50;5.40;100414.00;;;;341321;28;95585;-95
2022/02/20 00:21:08;;;;;;;;;;;4.90;99.60;5.50;100414.00;;;;343456;28;82463;-96
2022/02/20 00:21:20;;;;;;;;;;;4.90;99.40;5.60;100414.00;;;;346214;28;95631;-95
2022/02/20 00:21:32;;;;;;;;;;;4.90;99.30;5.50;100418.00;;;;344750;28;83244;-95
2022/02/20 00:21:44;;;;;;;;;;;4.90;99.30;5.50;100424.00;;;;344457;28;95710;-95
2022/02/20 00:21:55;;;;;;;;;;;4.90;99.40;5.50;100420.00;;;;344838;28;82253;-95
2022/02/20 00:22:07;;;;;;;;;;;4.90;99.40;5.40;100419.00;;;;345385;28;93887;-95
2022/02/20 00:22:19;;;;;;;;;;;4.90;99.40;5.40;100418.00;;;;346031;28;82524;-95
2022/02/20 00:22:31;;;;;;;;;;;4.90;99.50;5.40;100415.00;;;;343958;28;96593;-95
2022/02/20 00:22:43;;;;;;;;;;;4.90;99.50;5.50;100419.00;;;;343445;28;82558;-94
2022/02/20 00:22:55;;;;;;;;;;;4.90;99.60;5.50;100420.00;;;;345436;28;96413;-94
2022/02/20 00:23:07;;;;;;;;;;;4.90;99.60;5.50;100427.00;;;;343407;28;83375;-95
2022/02/20 00:23:19;;;;;;;;;;;4.90;99.50;5.50;100422.00;;;;343968;28;97034;-95
2022/02/20 00:23:31;;;;;;;;;;;4.90;99.40;5.40;100413.00;;;;344764;28;83304;-95
2022/02/20 00:23:42;;;;;;;;;;;4.90;99.40;5.40;100422.00;;;;346452;28;94506;-96
2022/02/20 00:23:54;;;;;;;;;;;4.90;99.40;5.60;100424.00;;;;344481;28;83063;-96
2022/02/20 00:24:06;;;;;;;;;;;4.90;99.40;5.50;100414.00;;;;344125;28;94717;-96
2022/02/20 00:24:18;;;;;;;;;;;4.90;99.50;5.60;100419.00;;;;343975;28;82379;-95
2022/02/20 00:24:30;;;;;;;;;;;4.90;99.50;5.70;100422.00;;;;342239;28;96558;-95
2022/02/20 00:24:41;;;;;;;;;;;5.00;99.60;5.50;100416.00;;;;342840;28;82472;-95
2022/02/20 00:24:55;;;;;;;;;;;5.00;99.50;5.50;100419.00;;;;342719;28;96014;-95
2022/02/20 00:25:08;;;;;;;;;;;4.90;99.50;5.40;100423.00;;;;343299;28;82354;-95
2022/02/20 00:25:20;;;;;;;;;;;5.00;99.50;5.50;100424.00;;;;342529;28;94852;-94
2022/02/20 00:25:34;;;;;;;;;;;4.90;99.50;5.60;100423.00;;;;341948;28;83420;-95
2022/02/20 00:25:48;;;;;;;;;;;5.00;99.50;5.50;100415.00;;;;342598;28;95891;-95
2022/02/20 00:25:59;;;;;;;;;;;5.00;99.50;5.40;100425.00;;;;344452;28;83579;-95
2022/02/20 00:26:11;;;;;;;;;;;5.00;99.60;5.40;100435.00;;;;343978;28;96842;-95
2022/02/20 00:26:23;;;;;;;;;;;5.00;99.60;5.40;100427.00;;;;346153;28;83363;-95
2022/02/20 00:26:35;;;;;;;;;;;4.90;99.60;5.40;100427.00;;;;344125;28;92647;-95
2022/02/20 00:26:47;;;;;;;;;;;5.00;99.60;5.60;100425.00;;;;345379;28;82484;-95
2022/02/20 00:26:59;;;;;;;;;;;5.00;99.60;5.60;100427.00;;;;343998;28;95893;-95
2022/02/20 00:27:11;;;;;;;;;;;5.00;99.70;5.50;100420.00;;;;343404;28;83486;-95
2022/02/20 00:27:23;;;;;;;;;;;5.00;99.80;5.50;100422.00;;;;346821;28;95445;-95
2022/02/20 00:27:35;;;;;;;;;;;5.00;99.80;5.50;100422.00;;;;344323;28;82642;-95
2022/02/20 00:27:47;;;;;;;;;;;5.00;99.90;5.60;100432.00;;;;343969;28;95633;-96
2022/02/20 00:28:02;;;;;;;;;;;5.00;99.70;5.50;100429.00;;;;346047;28;83175;-95
2022/02/20 00:28:14;;;;;;;;;;;5.00;99.60;5.40;100432.00;;;;342700;28;96350;-95
2022/02/20 00:28:25;;;;;;;;;;;4.90;99.80;5.50;100434.00;;;;346080;28;82348;-96
2022/02/20 00:28:39;;;;;;;;;;;4.90;99.90;5.50;100420.00;;;;343547;28;94523;-95
2022/02/20 00:28:50;;;;;;;;;;;5.00;99.80;5.50;100429.00;;;;344631;28;83278;-95
2022/02/20 00:29:02;;;;;;;;;;;5.00;99.70;5.50;100426.00;;;;344037;28;96709;-95
2022/02/20 00:29:14;;;;;;;;;;;5.00;99.60;5.40;100431.00;;;;344813;28;82539;-94
2022/02/20 00:29:26;;;;;;;;;;;5.00;99.70;5.50;100422.00;;;;345540;28;95464;-95
2022/02/20 00:29:38;;;;;;;;;;;5.00;99.60;5.60;100433.00;;;;344816;28;82447;-95
2022/02/20 00:29:50;;;;;;;;;;;4.90;99.60;5.60;100432.00;;;;345421;28;95247;-95
2022/02/20 00:30:02;;;;;;;;;;;4.90;99.50;5.60;100422.00;;;;344812;28;83268;-95
2022/02/20 00:30:14;;;;;;;;;;;5.00;99.80;5.50;100426.00;;;;342603;28;96549;-95
2022/02/20 00:30:26;;;;;;;;;;;5.00;99.70;5.40;100431.00;;;;343285;28;83441;-95
2022/02/20 00:30:38;;;;;;;;;;;4.90;99.70;5.40;100434.00;;;;343248;28;96968;-95
2022/02/20 00:30:50;;;;;;;;;;;4.90;99.70;5.40;100424.00;;;;344538;28;83552;-94
2022/02/20 00:31:02;;;;;;;;;;;4.90;99.60;5.50;100430.00;;;;344019;28;95692;-94
2022/02/20 00:31:14;;;;;;;;;;;5.00;99.70;5.50;100428.00;;;;344857;28;82393;-94
2022/02/20 00:31:26;;;;;;;;;;;4.90;99.60;5.60;100418.00;;;;342539;28;96714;-96
2022/02/20 00:31:37;;;;;;;;;;;5.00;99.70;5.60;100422.00;;;;344008;28;82411;-95
2022/02/20 00:31:49;;;;;;;;;;;5.00;99.70;5.50;100420.00;;;;344186;28;95787;-95
2022/02/20 00:32:01;;;;;;;;;;;5.00;99.70;5.60;100426.00;;;;343580;28;82384;-95
2022/02/20 00:32:13;;;;;;;;;;;5.00;99.70;5.70;100423.00;;;;344043;28;96463;-95
2022/02/20 00:32:25;;;;;;;;;;;5.00;99.60;5.70;100432.00;;;;346133;28;83353;-94
2022/02/20 00:32:37;;;;;;;;;;;5.00;99.60;5.70;100424.00;;;;343986;28;95406;-94
2022/02/20 00:32:49;;;;;;;;;;;5.00;99.60;5.70;100421.00;;;;343450;28;83446;-95
2022/02/20 00:33:01;;;;;;;;;;;5.00;99.60;5.60;100418.00;;;;343967;28;95414;-96
2022/02/20 00:33:13;;;;;;;;;;;5.00;99.70;5.60;100423.00;;;;346130;28;82329;-95
2022/02/20 00:33:25;;;;;;;;;;;5.00;99.70;5.50;100427.00;;;;342596;28;96133;-94
2022/02/20 00:33:37;;;;;;;;;;;5.00;99.70;5.30;100431.00;;;;343809;28;82694;-95
2022/02/20 00:33:49;;;;;;;;;;;5.00;99.80;5.30;100415.00;;;;341316;28;96347;-95
2022/02/20 00:34:00;;;;;;;;;;;5.00;99.80;5.20;100425.00;;;;344899;28;83383;-95
2022/02/20 00:34:12;;;;;;;;;;;5.00;99.90;5.40;100430.00;;;;344042;28;96833;-94
2022/02/20 00:34:24;;;;;;;;;;;5.00;99.90;5.60;100419.00;;;;343715;28;82501;-94
2022/02/20 00:34:36;;;;;;;;;;;5.00;99.90;5.60;100424.00;;;;345250;28;96165;-95
2022/02/20 00:34:48;;;;;;;;;;;5.00;99.90;5.50;100432.00;;;;342134;28;83376;-95
2022/02/20 00:34:59;;;;;;;;;;;5.00;99.90;5.50;100430.00;;;;346692;28;96033;-95
2022/02/20 00:35:12;;;;;;;;;;;5.00;99.90;5.60;100425.00;;;;347505;27;83461;-94
2022/02/20 00:35:28;;;;;;;;;;;5.00;99.90;5.40;100425.00;;;;343992;28;96486;-95
2022/02/20 00:35:40;;;;;;;;;;;5.00;99.90;5.40;100429.00;;;;346117;28;83506;-95
2022/02/20 00:35:51;;;;;;;;;;;5.00;99.90;5.40;100430.00;;;;345449;28;95554;-95
2022/02/20 00:36:03;;;;;;;;;;;5.00;99.90;5.50;100422.00;;;;344899;28;82401;-95
2022/02/20 00:36:15;;;;;;;;;;;5.00;99.90;5.50;100429.00;;;;342596;28;96778;-95
2022/02/20 00:36:27;;;;;;;;;;;5.00;99.80;5.60;100421.00;;;;344662;28;83399;-95
2022/02/20 00:36:39;;;;;;;;;;;5.00;99.80;5.60;100420.00;;;;343500;28;96629;-95
2022/02/20 00:36:51;;;;;;;;;;;5.00;99.80;5.60;100422.00;;;;344700;28;83519;-95
2022/02/20 00:37:07;;;;;;;;;;;5.00;99.90;5.60;100423.00;;;;344334;28;94777;-93
2022/02/20 00:37:19;;;;;;;;;;;5.00;99.80;5.60;100428.00;;;;344783;28;83417;-95
2022/02/20 00:37:31;;;;;;;;;;;5.00;99.80;5.40;100427.00;;;;344041;28;95147;-95
2022/02/20 00:37:43;;;;;;;;;;;5.00;99.90;5.30;100425.00;;;;343397;28;83539;-95
2022/02/20 00:37:55;;;;;;;;;;;5.00;99.90;5.20;100431.00;;;;341146;28;96455;-94
2022/02/20 00:38:07;;;;;;;;;;;5.00;99.90;5.30;100430.00;;;;344763;28;82606;-94
2022/02/20 00:38:20;;;;;;;;;;;5.00;99.90;5.50;100428.00;;;;341196;28;97828;-95
2022/02/20 00:38:32;;;;;;;;;;;5.00;99.90;5.40;100427.00;;;;344703;28;83321;-94
2022/02/20 00:38:43;;;;;;;;;;;5.00;99.90;5.50;100432.00;;;;345091;28;94747;-94
2022/02/20 00:38:55;;;;;;;;;;;5.00;99.90;5.50;100428.00;;;;347436;28;82434;-96
2022/02/20 00:39:07;;;;;;;;;;;5.00;99.90;5.40;100424.00;;;;345373;28;95857;-95
2022/02/20 00:39:19;;;;;;;;;;;5.00;99.90;5.30;100436.00;;;;344823;28;83382;-94
2022/02/20 00:39:31;;;;;;;;;;;5.00;99.90;5.20;100424.00;;;;342293;28;94591;-95
2022/02/20 00:39:43;;;;;;;;;;;4.90;99.90;5.20;100435.00;;;;345949;28;82669;-95
2022/02/20 00:39:55;;;;;;;;;;;4.90;99.90;5.20;100433.00;;;;344017;28;95459;-96
2022/02/20 00:40:07;;;;;;;;;;;5.00;99.90;5.30;100427.00;;;;344807;28;83497;-95
2022/02/20 00:40:19;;;;;;;;;;;4.90;99.90;5.20;100427.00;;;;342587;28;97907;-95
2022/02/20 00:40:31;;;;;;;;;;;5.00;99.90;5.20;100426.00;;;;345828;28;83517;-95
2022/02/20 00:40:43;;;;;;;;;;;4.90;99.90;5.20;100429.00;;;;344106;28;92944;-95
2022/02/20 00:40:55;;;;;;;;;;;4.90;99.90;5.20;100429.00;;;;344755;28;82459;-95
2022/02/20 00:41:07;;;;;;;;;;;4.90;99.90;5.20;100437.00;;;;345207;28;94563;-95
2022/02/20 00:41:18;;;;;;;;;;;4.90;99.90;5.20;100438.00;;;;346163;28;83378;-95
2022/02/20 00:41:30;;;;;;;;;;;4.80;99.90;5.30;100439.00;;;;345288;28;95573;-95
2022/02/20 00:41:42;;;;;;;;;;;4.80;99.90;5.30;100436.00;;;;344775;28;82482;-95
2022/02/20 00:41:54;;;;;;;;;;;4.80;99.90;5.20;100427.00;;;;346633;28;95459;-95
2022/02/20 00:42:06;;;;;;;;;;;4.80;99.90;5.10;100442.00;;;;346195;28;83436;-95
2022/02/20 00:42:22;;;;;;;;;;;4.80;99.90;5.10;100438.00;;;;345402;28;96273;-95
2022/02/20 00:42:34;;;;;;;;;;;4.80;99.90;5.10;100438.00;;;;344842;28;83513;-94
2022/02/20 00:42:45;;;;;;;;;;;4.80;99.90;5.10;100431.00;;;;342943;28;95879;-94
2022/02/20 00:42:58;;;;;;;;;;;4.80;99.90;5.10;100432.00;;;;344774;28;82432;-95
2022/02/20 00:43:09;;;;;;;;;;;4.80;99.90;5.10;100430.00;;;;344034;28;95185;-95
2022/02/20 00:43:21;;;;;;;;;;;4.80;99.90;5.20;100429.00;;;;341999;28;83410;-95
2022/02/20 00:43:33;;;;;;;;;;;4.80;99.90;5.30;100444.00;;;;341758;28;93510;-95
2022/02/20 00:43:45;;;;;;;;;;;4.80;99.90;5.30;100449.00;;;;346074;28;83480;-94
2022/02/20 00:43:57;;;;;;;;;;;4.80;99.90;5.30;100439.00;;;;342844;28;96875;-95
2022/02/20 00:44:09;;;;;;;;;;;4.80;99.90;5.30;100437.00;;;;346105;28;83530;-95
2022/02/20 00:44:21;;;;;;;;;;;4.80;99.90;5.40;100441.00;;;;344038;28;94231;-95
2022/02/20 00:44:33;;;;;;;;;;;4.80;99.90;5.30;100433.00;;;;345215;28;82312;-95
2022/02/20 00:44:45;;;;;;;;;;;4.80;99.90;5.40;100440.00;;;;346116;28;95337;-95
2022/02/20 00:44:56;;;;;;;;;;;4.80;99.90;5.40;100441.00;;;;343577;28;83136;-95
2022/02/20 00:45:09;;;;;;;;;;;4.80;99.90;5.50;100441.00;;;;345530;28;95482;-95
2022/02/20 00:45:20;;;;;;;;;;;4.80;99.90;5.50;100433.00;;;;345120;28;82421;-95
2022/02/20 00:45:32;;;;;;;;;;;4.80;99.90;5.40;100438.00;;;;342387;28;96246;-94
2022/02/20 00:45:45;;;;;;;;;;;4.90;99.90;5.40;100442.00;;;;344743;28;83474;-96
2022/02/20 00:45:57;;;;;;;;;;;4.80;99.90;5.30;100439.00;;;;341484;28;96647;-95
2022/02/20 00:46:08;;;;;;;;;;;4.80;99.90;5.30;100441.00;;;;342543;28;82537;-95
2022/02/20 00:46:20;;;;;;;;;;;4.90;99.90;5.40;100449.00;;;;341377;28;97342;-95
2022/02/20 00:46:32;;;;;;;;;;;4.90;99.90;5.40;100437.00;;;;344847;28;82476;-95
2022/02/20 00:46:44;;;;;;;;;;;4.90;99.90;5.30;100441.00;;;;343186;28;95249;-94
2022/02/20 00:46:56;;;;;;;;;;;4.90;99.90;5.30;100442.00;;;;346510;28;82281;-95
2022/02/20 00:47:07;;;;;;;;;;;4.80;99.90;5.20;100441.00;;;;343098;28;92976;-95
2022/02/20 00:47:19;;;;;;;;;;;4.80;99.90;5.20;100441.00;;;;344556;28;82354;-95
2022/02/20 00:47:31;;;;;;;;;;;4.80;99.90;5.30;100446.00;;;;344399;28;95785;-95
2022/02/20 00:47:43;;;;;;;;;;;4.80;99.90;5.20;100436.00;;;;346298;28;83516;-95
2022/02/20 00:47:55;;;;;;;;;;;4.80;99.90;5.10;100441.00;;;;344427;28;95395;-94
2022/02/20 00:48:07;;;;;;;;;;;4.80;99.90;5.10;100442.00;;;;346442;28;83293;-94
2022/02/20 00:48:20;;;;;;;;;;;4.80;99.90;5.10;100446.00;;;;345561;28;95834;-95
2022/02/20 00:48:32;;;;;;;;;;;4.80;99.90;5.00;100438.00;;;;344682;28;82702;-95
2022/02/20 00:48:44;;;;;;;;;;;4.80;99.90;5.00;100448.00;;;;342407;28;95418;-94
2022/02/20 00:48:56;;;;;;;;;;;4.80;99.90;5.00;100445.00;;;;345209;28;82389;-94
2022/02/20 00:49:08;;;;;;;;;;;4.80;99.90;5.00;100450.00;;;;345679;28;95747;-95
2022/02/20 00:49:20;;;;;;;;;;;4.80;99.90;5.10;100450.00;;;;343671;28;83357;-94
2022/02/20 00:49:32;;;;;;;;;;;4.70;99.90;5.10;100453.00;;;;344256;28;95257;-95
2022/02/20 00:49:44;;;;;;;;;;;4.80;99.90;5.10;100443.00;;;;345071;28;82650;-94
2022/02/20 00:49:55;;;;;;;;;;;4.80;99.90;5.10;100445.00;;;;343491;28;95571;-95
2022/02/20 00:50:08;;;;;;;;;;;4.80;99.90;5.10;100447.00;;;;342374;28;83506;-94
2022/02/20 00:50:20;;;;;;;;;;;4.70;99.90;5.10;100443.00;;;;341608;28;96769;-95
2022/02/20 00:50:32;;;;;;;;;;;4.70;99.90;5.20;100442.00;;;;343875;28;82527;-95
2022/02/20 00:50:44;;;;;;;;;;;4.70;99.90;5.20;100440.00;;;;344379;28;94669;-95
2022/02/20 00:50:55;;;;;;;;;;;4.70;99.90;5.30;100442.00;;;;343693;28;82431;-95
2022/02/20 00:51:07;;;;;;;;;;;4.70;99.90;5.20;100447.00;;;;344166;28;95267;-95
2022/02/20 00:51:19;;;;;;;;;;;4.70;99.90;5.30;100445.00;;;;343843;28;82311;-95
2022/02/20 00:51:31;;;;;;;;;;;4.70;99.90;5.40;100452.00;;;;341666;28;95634;-94
2022/02/20 00:51:42;;;;;;;;;;;4.70;99.90;5.40;100440.00;;;;344597;28;82513;-95
2022/02/20 00:51:54;;;;;;;;;;;4.70;99.90;5.40;100440.00;;;;343013;28;94749;-95
2022/02/20 00:52:06;;;;;;;;;;;4.70;99.90;5.50;100448.00;;;;344575;28;82435;-94
2022/02/20 00:52:18;;;;;;;;;;;4.70;99.90;5.40;100442.00;;;;342863;28;97165;-94
2022/02/20 00:52:30;;;;;;;;;;;4.70;99.90;5.30;100444.00;;;;344252;28;82484;-94
2022/02/20 00:52:42;;;;;;;;;;;4.70;99.90;5.40;100433.00;;;;344038;28;95525;-94
2022/02/20 00:52:54;;;;;;;;;;;4.70;99.90;5.40;100447.00;;;;342487;28;82428;-95
2022/02/20 00:53:05;;;;;;;;;;;4.80;99.90;5.50;100451.00;;;;344323;28;95430;-94
2022/02/20 00:53:17;;;;;;;;;;;4.70;99.90;5.40;100433.00;;;;343782;28;82299;-95
2022/02/20 00:53:30;;;;;;;;;;;4.80;99.90;5.40;100443.00;;;;345929;28;95255;-96
2022/02/20 00:53:42;;;;;;;;;;;4.70;99.90;5.40;100438.00;;;;346471;28;82353;-94
2022/02/20 00:53:54;;;;;;;;;;;4.80;99.90;5.40;100439.00;;;;345917;28;95971;-94
2022/02/20 00:54:08;;;;;;;;;;;4.80;99.90;5.40;100435.00;;;;347966;28;82336;-94
2022/02/20 00:54:20;;;;;;;;;;;4.80;99.90;5.30;100440.00;;;;344253;28;96267;-95
2022/02/20 00:54:31;;;;;;;;;;;4.80;99.90;5.20;100432.00;;;;346316;28;82247;-94
2022/02/20 00:54:43;;;;;;;;;;;4.80;99.90;5.20;100443.00;;;;347153;28;95161;-94
2022/02/20 00:54:55;;;;;;;;;;;4.80;99.90;5.30;100438.00;;;;345621;28;82428;-95
2022/02/20 00:55:08;;;;;;;;;;;4.70;99.90;5.40;100436.00;;;;345743;28;95425;-94
2022/02/20 00:55:20;;;;;;;;;;;4.80;99.90;5.30;100442.00;;;;344924;28;82309;-94
2022/02/20 00:55:32;;;;;;;;;;;4.80;99.90;5.30;100442.00;;;;344676;28;95988;-94
2022/02/20 00:55:44;;;;;;;;;;;4.80;99.90;5.40;100434.00;;;;344012;28;82414;-94
2022/02/20 00:55:55;;;;;;;;;;;4.80;99.90;5.40;100442.00;;;;342902;28;95900;-94
2022/02/20 00:56:07;;;;;;;;;;;4.80;99.90;5.30;100435.00;;;;345335;28;82471;-94
2022/02/20 00:56:19;;;;;;;;;;;4.80;99.90;5.30;100434.00;;;;345702;28;96795;-95
2022/02/20 00:56:31;;;;;;;;;;;4.80;99.90;5.20;100438.00;;;;345426;28;82430;-94
2022/02/20 00:56:42;;;;;;;;;;;4.80;99.90;5.20;100438.00;;;;347471;28;92976;-94
2022/02/20 00:56:54;;;;;;;;;;;4.80;99.90;5.20;100437.00;;;;346595;28;82381;-94
2022/02/20 00:57:06;;;;;;;;;;;4.80;99.90;5.10;100436.00;;;;344385;28;95375;-94
2022/02/20 00:57:20;;;;;;;;;;;4.80;99.90;5.10;100431.00;;;;346615;28;82410;-95
2022/02/20 00:57:32;;;;;;;;;;;4.70;99.90;5.10;100436.00;;;;347405;28;96505;-95
2022/02/20 00:57:44;;;;;;;;;;;4.80;99.90;5.10;100436.00;;;;347816;28;82401;-94
2022/02/20 00:57:55;;;;;;;;;;;4.80;99.90;5.20;100431.00;;;;345825;28;95370;-94
2022/02/20 00:58:08;;;;;;;;;;;4.80;99.90;5.30;100436.00;;;;346202;28;82937;-95
2022/02/20 00:58:20;;;;;;;;;;;4.80;99.90;5.40;100436.00;;;;346920;28;97497;-95
2022/02/20 00:58:32;;;;;;;;;;;4.80;99.90;5.40;100429.00;;;;346804;28;82480;-94
2022/02/20 00:58:44;;;;;;;;;;;4.80;99.90;5.30;100434.00;;;;347350;28;94970;-95
2022/02/20 00:58:56;;;;;;;;;;;4.80;99.90;5.30;100434.00;;;;343816;28;82321;-95
2022/02/20 00:59:08;;;;;;;;;;;4.80;99.90;5.30;100435.00;;;;347074;28;95955;-94
2022/02/20 00:59:20;;;;;;;;;;;4.80;99.90;5.30;100436.00;;;;346953;28;82330;-95
2022/02/20 00:59:31;;;;;;;;;;;4.80;99.90;5.20;100431.00;;;;345952;28;95831;-94
2022/02/20 00:59:43;;;;;;;;;;;4.80;99.90;5.20;100433.00;;;;346640;28;82352;-94
2022/02/20 00:59:55;;;;;;;;;;;4.80;99.90;5.30;100441.00;;;;344605;28;95781;-94
2022/02/20 01:00:08;;;;;;;;;;;4.80;99.90;5.40;100438.00;;;;344644;28;82502;-95
2022/02/20 01:00:20;;;;;;;;;;;4.80;99.90;5.50;100432.00;;;;345288;28;97076;-95
2022/02/20 01:00:32;;;;;;;;;;;4.80;99.90;5.50;100428.00;;;;344511;28;82429;-95